createdAt,value
2023-04-02T00:00:17.549Z,100087.06
2023-04-02T00:02:47.172Z,100081.09
2023-04-02T00:05:31.152Z,100085.38
2023-04-02T00:08:00.280Z,100086.19
2023-04-02T00:10:30.585Z,100097.38
2023-04-02T00:13:06.621Z,100090.84
2023-04-02T00:15:35.202Z,100096.81
2023-04-02T00:18:04.794Z,100107.63
2023-04-02T00:20:36.344Z,100111.47
2023-04-02T00:23:05.143Z,100119.63
2023-04-02T00:25:35.984Z,100130.13
2023-04-02T00:28:04.590Z,100144.53
2023-04-02T00:30:32.996Z,100139.13
2023-04-02T00:33:01.945Z,100158.13
2023-04-02T00:35:30.417Z,100154.88
2023-04-02T00:38:00.410Z,100166.81
2023-04-02T00:40:30.227Z,100159.75
2023-04-02T00:43:01.183Z,100170.63
2023-04-02T00:45:30.812Z,100173.59
2023-04-02T00:48:00.363Z,100176.56
2023-04-02T00:50:31.289Z,100180.09
2023-04-02T00:53:04.990Z,100185.78
2023-04-02T00:55:35.948Z,100186.59
2023-04-02T00:58:06.454Z,100192.84
2023-04-02T01:00:35.962Z,100199.31
2023-04-02T01:03:23.679Z,100203.66
2023-04-02T01:05:56.913Z,100212.91
2023-04-02T01:08:32.438Z,100215.06
2023-04-02T01:11:03.795Z,100214.78
2023-04-02T01:13:34.703Z,100227.25
2023-04-02T01:16:07.428Z,100221.03
2023-04-02T01:18:42.424Z,100235.09
2023-04-02T01:21:26.048Z,100231.03
2023-04-02T01:23:59.328Z,100236.44
2023-04-02T01:26:34.090Z,100236.16
2023-04-02T01:29:06.715Z,100238.84
2023-04-02T01:31:35.622Z,100245.38
2023-04-02T01:34:04.859Z,100250.25
2023-04-02T01:36:37.464Z,100255.94
2023-04-02T01:39:12.451Z,100258.38
2023-04-02T01:41:44.960Z,100271.88
2023-04-02T01:44:36.656Z,100271.59
2023-04-02T01:47:10.818Z,100277.28
2023-04-02T01:49:41.081Z,100284.06
2023-04-02T01:52:10.100Z,100287.06
2023-04-02T01:54:38.862Z,100283.00
2023-04-02T01:57:08.466Z,100302.22
2023-04-02T01:59:38.163Z,100303.06
2023-04-02T02:02:07.829Z,100302.75
2023-04-02T02:04:36.285Z,100314.13
2023-04-02T02:07:04.978Z,100309.84
2023-04-02T02:09:34.538Z,100316.88
2023-04-02T02:12:03.921Z,100322.03
2023-04-02T02:14:32.390Z,100316.88
2023-04-02T02:17:04.080Z,100330.44
2023-04-02T02:19:36.759Z,100337.44
2023-04-02T02:22:09.065Z,100342.81
2023-04-02T02:24:37.670Z,100349.38
2023-04-02T02:27:12.227Z,100348.28
2023-04-02T02:29:41.421Z,100358.88
2023-04-02T02:32:12.936Z,100365.13
2023-04-02T02:34:44.103Z,100374.28
2023-04-02T02:37:15.053Z,100381.84
2023-04-02T02:39:44.260Z,100380.16
2023-04-02T02:42:15.952Z,100376.84
2023-04-02T02:44:47.248Z,100385.53
2023-04-02T02:47:19.647Z,100396.88
2023-04-02T02:49:50.743Z,100394.06
2023-04-02T02:52:20.909Z,100395.66
2023-04-02T02:54:52.804Z,100402.81
2023-04-02T02:57:23.410Z,100411.97
2023-04-02T02:59:52.175Z,100415.19
2023-04-02T03:02:23.184Z,100421.66
2023-04-02T03:04:53.685Z,100419.28
2023-04-02T03:07:25.617Z,100424.94
2023-04-02T03:09:58.899Z,100433.84
2023-04-02T03:12:33.826Z,100433.03
2023-04-02T03:15:04.617Z,100438.69
2023-04-02T03:17:38.226Z,100448.19
2023-04-02T03:20:12.532Z,100449.25
2023-04-02T03:22:45.445Z,100450.06
2023-04-02T03:25:22.770Z,100455.41
2023-04-02T03:27:52.933Z,100470.78
2023-04-02T03:30:28.939Z,100473.47
2023-04-02T03:33:02.542Z,100475.81
2023-04-02T03:35:35.668Z,100476.91
2023-04-02T03:38:07.442Z,100495.94
2023-04-02T03:40:38.965Z,100515.13
2023-04-02T03:43:14.025Z,100508.09
2023-04-02T03:45:43.219Z,100511.75
2023-04-02T03:48:15.081Z,100516.78
2023-04-02T03:50:46.513Z,100523.50
2023-04-02T03:53:14.971Z,100527.50
2023-04-02T03:55:43.886Z,100540.88
2023-04-02T03:58:16.267Z,100535.78
2023-04-02T04:00:47.710Z,100543.31
2023-04-02T04:03:19.112Z,100558.53
2023-04-02T04:05:51.021Z,100553.59
2023-04-02T04:08:21.332Z,100559.34
2023-04-02T04:10:52.386Z,100567.88
2023-04-02T04:13:25.560Z,100568.53
2023-04-02T04:15:56.936Z,100577.31
2023-04-02T04:18:34.785Z,100584.88
2023-04-02T04:21:04.871Z,100586.50
2023-04-02T04:23:35.953Z,100595.09
2023-04-02T04:26:10.577Z,100593.72
2023-04-02T04:28:43.485Z,100605.03
2023-04-02T04:31:24.600Z,100618.25
2023-04-02T04:34:06.069Z,100619.06
2023-04-02T04:36:41.594Z,100620.75
2023-04-02T04:39:14.933Z,100636.13
2023-04-02T04:41:51.406Z,100635.00
2023-04-02T04:44:23.238Z,100637.22
2023-04-02T04:46:57.065Z,100641.94
2023-04-02T04:49:32.228Z,100647.53
2023-04-02T04:52:08.672Z,100649.31
2023-04-02T04:54:41.603Z,100662.69
2023-04-02T04:57:22.716Z,100664.16
2023-04-02T04:59:57.161Z,100667.78
2023-04-02T05:02:31.322Z,100681.13
2023-04-02T05:05:07.346Z,100682.25
2023-04-02T05:07:48.067Z,100691.19
2023-04-02T05:10:22.533Z,100709.88
2023-04-02T05:12:53.632Z,100708.81
2023-04-02T05:15:25.784Z,100705.03
2023-04-02T05:17:56.735Z,100720.75
2023-04-02T05:20:29.326Z,100728.91
2023-04-02T05:23:01.666Z,100738.09
2023-04-02T05:25:31.976Z,100728.63
2023-04-02T05:28:04.540Z,100740.69
2023-04-02T05:30:39.781Z,100747.38
2023-04-02T05:33:16.717Z,100751.09
2023-04-02T05:35:48.622Z,100759.69
2023-04-02T05:38:20.591Z,100765.16
2023-04-02T05:40:51.863Z,100758.84
2023-04-02T05:43:21.528Z,100769.50
2023-04-02T05:45:54.105Z,100777.88
2023-04-02T05:48:27.283Z,100780.31
2023-04-02T05:50:59.128Z,100783.34
2023-04-02T05:53:33.168Z,100793.69
2023-04-02T05:56:04.330Z,100790.31
2023-04-02T05:58:36.947Z,100796.47
2023-04-02T06:01:08.770Z,100805.47
2023-04-02T06:03:44.670Z,100816.03
2023-04-02T06:06:19.083Z,100825.97
2023-04-02T06:08:54.818Z,100828.72
2023-04-02T06:11:26.617Z,100828.81
2023-04-02T06:13:55.516Z,100840.34
2023-04-02T06:16:26.477Z,100843.97
2023-04-02T06:18:55.986Z,100853.91
2023-04-02T06:21:26.962Z,100861.09
2023-04-02T06:23:57.840Z,100872.25
2023-04-02T06:26:28.909Z,100874.84
2023-04-02T06:29:01.917Z,100885.56
2023-04-02T06:31:37.411Z,100876.06
2023-04-02T06:34:10.152Z,100889.41
2023-04-02T06:36:40.114Z,100891.66
2023-04-02T06:39:09.696Z,100891.03
2023-04-02T06:41:38.028Z,100895.09
2023-04-02T06:44:08.416Z,100903.88
2023-04-02T06:46:38.644Z,100906.25
2023-04-02T06:49:14.334Z,100909.97
2023-04-02T06:51:45.242Z,100909.19
2023-04-02T06:54:14.626Z,100901.16
2023-04-02T06:56:47.375Z,100918.94
2023-04-02T06:59:16.602Z,100930.88
2023-04-02T07:01:47.479Z,100934.66
2023-04-02T07:04:16.020Z,100954.63
2023-04-02T07:06:45.755Z,100955.63
2023-04-02T07:09:14.231Z,100947.38
2023-04-02T07:11:42.660Z,100959.00
2023-04-02T07:14:12.170Z,100972.16
2023-04-02T07:16:41.052Z,100973.78
2023-04-02T07:19:17.028Z,100983.63
2023-04-02T07:21:48.137Z,100980.06
2023-04-02T07:24:18.325Z,100984.25
2023-04-02T07:26:48.323Z,100988.59
2023-04-02T07:29:17.379Z,101004.00
2023-04-02T07:31:46.016Z,100995.16
2023-04-02T07:34:14.542Z,101011.34
2023-04-02T07:36:42.902Z,101014.09
2023-04-02T07:39:12.501Z,101016.75
2023-04-02T07:41:53.664Z,101018.06
2023-04-02T07:44:22.033Z,101025.81
2023-04-02T07:46:50.559Z,101041.75
2023-04-02T07:49:21.933Z,101040.03
2023-04-02T07:51:50.935Z,101046.78
2023-04-02T07:54:20.546Z,101045.72
2023-04-02T07:56:48.878Z,101048.97
2023-04-02T07:59:17.382Z,101049.69
2023-04-02T08:01:45.729Z,101054.50
2023-04-02T08:04:21.686Z,101064.19
2023-04-02T08:06:50.595Z,101069.09
2023-04-02T08:09:20.236Z,101080.78
2023-04-02T08:11:48.567Z,101074.72
2023-04-02T08:14:16.835Z,101074.34
2023-04-02T08:16:46.972Z,101091.25
2023-04-02T08:19:15.697Z,101092.69
2023-04-02T08:21:44.284Z,101100.47
2023-04-02T08:24:12.640Z,101114.63
2023-04-02T08:26:43.969Z,101112.69
2023-04-02T08:29:13.842Z,101121.34
2023-04-02T08:31:42.312Z,101137.63
2023-04-02T08:34:10.576Z,101130.91
2023-04-02T08:36:39.726Z,101142.50
2023-04-02T08:39:11.636Z,101127.56
2023-04-02T08:41:43.556Z,101137.97
2023-04-02T08:44:26.828Z,101140.91
2023-04-02T08:46:59.946Z,101150.47
2023-04-02T08:49:31.990Z,101147.31
2023-04-02T08:52:00.710Z,101148.47
2023-04-02T08:54:30.469Z,101156.72
2023-04-02T08:57:01.488Z,101157.31
2023-04-02T08:59:32.836Z,101166.47
2023-04-02T09:02:06.568Z,101172.16
2023-04-02T09:04:36.884Z,101184.06
2023-04-02T09:07:05.532Z,101183.97
2023-04-02T09:09:38.056Z,101189.94
2023-04-02T09:12:08.186Z,101189.03
2023-04-02T09:14:41.620Z,101204.31
2023-04-02T09:17:17.427Z,101213.72
2023-04-02T09:19:50.525Z,101208.28
2023-04-02T09:22:21.640Z,101221.13
2023-04-02T09:24:52.643Z,101223.16
2023-04-02T09:27:22.645Z,101230.91
2023-04-02T09:29:52.601Z,101230.00
2023-04-02T09:32:29.101Z,101227.13
2023-04-02T09:35:18.485Z,101232.63
2023-04-02T09:38:08.905Z,101226.69
2023-04-02T09:40:41.426Z,101247.00
2023-04-02T09:43:12.749Z,101240.00
2023-04-02T09:45:42.445Z,101244.84
2023-04-02T09:48:23.154Z,101250.06
2023-04-02T09:50:51.513Z,101259.31
2023-04-02T09:53:28.951Z,101266.50
2023-04-02T09:56:11.013Z,101275.28
2023-04-02T09:58:44.098Z,101269.63
2023-04-02T10:01:29.360Z,101290.97
2023-04-02T10:04:00.128Z,101281.13
2023-04-02T10:06:29.727Z,101293.84
2023-04-02T10:08:58.510Z,101294.44
2023-04-02T10:11:36.523Z,101303.41
2023-04-02T10:14:19.009Z,101306.66
2023-04-02T10:16:50.729Z,101305.47
2023-04-02T10:19:23.921Z,101305.84
2023-04-02T10:21:53.355Z,101318.19
2023-04-02T10:24:21.610Z,101315.31
2023-04-02T10:26:55.237Z,101321.06
2023-04-02T10:29:31.423Z,101329.63
2023-04-02T10:32:02.449Z,101331.03
2023-04-02T10:34:36.124Z,101333.69
2023-04-02T10:37:11.960Z,101329.72
2023-04-02T10:39:41.892Z,101350.06
2023-04-02T10:42:17.583Z,101352.06
2023-04-02T10:44:52.196Z,101355.59
2023-04-02T10:47:27.267Z,101354.22
2023-04-02T10:50:02.008Z,101362.66
2023-04-02T10:52:31.534Z,101374.13
2023-04-02T10:55:03.158Z,101372.53
2023-04-02T10:57:36.340Z,101374.81
2023-04-02T11:00:09.497Z,101372.53
2023-04-02T11:02:43.050Z,101385.28
2023-04-02T11:05:18.204Z,101386.88
2023-04-02T11:07:58.575Z,101393.50
2023-04-02T11:10:28.794Z,101399.28
2023-04-02T11:12:59.518Z,101396.91
2023-04-02T11:15:28.018Z,101395.88
2023-04-02T11:17:56.456Z,101408.13
2023-04-02T11:20:57.258Z,101399.50
2023-04-02T11:23:28.887Z,101411.81
2023-04-02T11:26:21.619Z,101414.31
2023-04-02T11:29:01.649Z,101413.81
2023-04-02T11:31:30.178Z,101425.38
2023-04-02T11:33:58.517Z,101423.31
2023-04-02T11:36:45.498Z,101435.56
2023-04-02T11:39:35.162Z,101437.13
2023-04-02T11:42:05.389Z,101437.19
2023-04-02T11:44:33.586Z,101443.16
2023-04-02T11:47:20.896Z,101448.88
2023-04-02T11:50:07.247Z,101448.00
2023-04-02T11:52:50.659Z,101443.69
2023-04-02T11:55:24.155Z,101454.66
2023-04-02T11:58:01.971Z,101459.19
2023-04-02T12:00:45.202Z,101464.59
2023-04-02T12:03:29.848Z,101463.69
2023-04-02T12:06:03.744Z,101473.25
2023-04-02T12:08:50.721Z,101471.59
2023-04-02T12:11:33.652Z,101467.19
2023-04-02T12:14:03.099Z,101470.66
2023-04-02T12:16:34.481Z,101476.16
2023-04-02T12:19:03.391Z,101480.03
2023-04-02T12:21:31.799Z,101476.47
2023-04-02T12:24:00.650Z,101479.13
2023-04-02T12:26:38.442Z,101482.53
2023-04-02T12:29:24.319Z,101478.50
2023-04-02T12:31:53.438Z,101478.38
2023-04-02T12:34:22.836Z,101481.84
2023-04-02T12:36:54.756Z,101487.56
2023-04-02T12:39:28.373Z,101494.16
2023-04-02T12:41:58.741Z,101486.34
2023-04-02T12:44:28.455Z,101487.19
2023-04-02T12:46:57.150Z,101489.97
2023-04-02T12:49:38.116Z,101490.16
2023-04-02T12:52:08.190Z,101484.19
2023-04-02T12:54:37.800Z,101496.09
2023-04-02T12:57:24.363Z,101494.00
2023-04-02T12:59:53.172Z,101494.28
2023-04-02T13:02:22.259Z,101485.78
2023-04-02T13:04:51.339Z,101490.78
2023-04-02T13:07:21.167Z,101495.56
2023-04-02T13:09:50.998Z,101481.72
2023-04-02T13:12:28.523Z,101503.78
2023-04-02T13:14:58.164Z,101497.78
2023-04-02T13:17:43.114Z,101504.84
2023-04-02T13:20:31.141Z,101509.72
2023-04-02T13:23:00.127Z,101517.19
2023-04-02T13:25:30.168Z,101509.56
2023-04-02T13:28:00.717Z,101517.44
2023-04-02T13:30:29.525Z,101524.56
2023-04-02T13:32:57.882Z,101516.00
2023-04-02T13:35:27.172Z,101510.16
2023-04-02T13:37:55.460Z,101497.13
2023-04-02T13:40:23.979Z,101511.09
2023-04-02T13:42:52.284Z,101521.59
2023-04-02T13:45:26.610Z,101520.75
2023-04-02T13:47:57.232Z,101527.34
2023-04-02T13:50:25.590Z,101515.91
2023-04-02T13:52:55.055Z,101522.69
2023-04-02T13:55:24.478Z,101523.22
2023-04-02T13:57:52.799Z,101525.94
2023-04-02T14:00:21.244Z,101536.13
2023-04-02T14:02:53.136Z,101540.72
2023-04-02T14:05:28.320Z,101537.13
2023-04-02T14:08:06.666Z,101540.69
2023-04-02T14:10:44.797Z,101540.22
2023-04-02T14:13:17.446Z,101540.44
2023-04-02T14:16:01.679Z,101547.88
2023-04-02T14:18:41.813Z,101559.59
2023-04-02T14:21:14.300Z,101560.69
2023-04-02T14:23:48.667Z,101560.09
2023-04-02T14:26:21.285Z,101558.09
2023-04-02T14:28:57.675Z,101565.13
2023-04-02T14:31:28.996Z,101566.59
2023-04-02T14:34:02.493Z,101573.66
2023-04-02T14:36:35.980Z,101575.13
2023-04-02T14:39:08.602Z,101571.31
2023-04-02T14:41:40.595Z,101568.84
2023-04-02T14:44:09.774Z,101565.63
2023-04-02T14:46:39.027Z,101582.53
2023-04-02T14:49:16.692Z,101580.97
2023-04-02T14:51:46.200Z,101583.94
2023-04-02T14:54:18.905Z,101580.44
2023-04-02T14:56:51.045Z,101587.78
2023-04-02T14:59:26.472Z,101589.75
2023-04-02T15:01:57.875Z,101597.97
2023-04-02T15:04:30.453Z,101588.66
2023-04-02T15:07:02.645Z,101583.69
2023-04-02T15:09:34.555Z,101595.94
2023-04-02T15:12:05.001Z,101598.69
2023-04-02T15:14:36.200Z,101601.53
2023-04-02T15:17:04.591Z,101600.47
2023-04-02T15:19:34.288Z,101616.78
2023-04-02T15:22:29.564Z,101607.44
2023-04-02T15:25:04.470Z,101610.66
2023-04-02T15:27:43.389Z,101612.16
2023-04-02T15:30:14.776Z,101615.88
2023-04-02T15:32:43.930Z,101621.13
2023-04-02T15:35:20.432Z,101623.78
2023-04-02T15:37:53.269Z,101627.75
2023-04-02T15:40:27.899Z,101622.00
2023-04-02T15:42:59.887Z,101618.13
2023-04-02T15:45:34.293Z,101631.00
2023-04-02T15:48:14.942Z,101636.41
2023-04-02T15:50:48.812Z,101628.56
2023-04-02T15:53:25.630Z,101645.38
2023-04-02T15:56:00.838Z,101647.19
2023-04-02T15:58:36.050Z,101645.72
2023-04-02T16:01:08.307Z,101633.84
2023-04-02T16:03:47.446Z,101647.50
2023-04-02T16:06:23.486Z,101649.19
2023-04-02T16:08:57.366Z,101653.97
2023-04-02T16:11:29.139Z,101654.66
2023-04-02T16:14:02.339Z,101664.81
2023-04-02T16:16:32.756Z,101673.22
2023-04-02T16:19:04.183Z,101675.16
2023-04-02T16:21:35.556Z,101687.53
2023-04-02T16:24:03.954Z,101679.97
2023-04-02T16:26:44.854Z,101691.34
2023-04-02T16:29:20.191Z,101690.53
2023-04-02T16:31:51.587Z,101702.88
2023-04-02T16:34:26.402Z,101712.59
2023-04-02T16:36:59.578Z,101708.03
2023-04-02T16:39:34.376Z,101713.56
2023-04-02T16:42:15.046Z,101706.66
2023-04-02T16:44:54.054Z,101708.63
2023-04-02T16:47:38.845Z,101723.66
2023-04-02T16:50:12.331Z,101726.84
2023-04-02T16:52:47.912Z,101711.50
2023-04-02T16:55:24.383Z,101725.09
2023-04-02T16:57:59.225Z,101726.84
2023-04-02T17:00:30.680Z,101734.53
2023-04-02T17:03:07.072Z,101735.59
2023-04-02T17:05:45.511Z,101735.25
2023-04-02T17:08:21.842Z,101737.38
2023-04-02T17:10:54.224Z,101738.13
2023-04-02T17:13:27.881Z,101749.13
2023-04-02T17:16:02.839Z,101748.78
2023-04-02T17:18:31.933Z,101754.59
2023-04-02T17:21:03.052Z,101754.69
2023-04-02T17:23:38.392Z,101756.13
2023-04-02T17:26:30.216Z,101762.41
2023-04-02T17:28:59.570Z,101761.69
2023-04-02T17:31:44.766Z,101763.09
2023-04-02T17:34:14.570Z,101761.94
2023-04-02T17:36:45.634Z,101768.28
2023-04-02T17:39:21.206Z,101763.38
2023-04-02T17:41:53.425Z,101774.22
2023-04-02T17:44:32.013Z,101779.66
2023-04-02T17:47:05.878Z,101775.72
2023-04-02T17:49:37.533Z,101783.19
2023-04-02T17:52:12.437Z,101779.16
2023-04-02T17:54:47.717Z,101779.59
2023-04-02T17:57:23.893Z,101786.31
2023-04-02T17:59:56.493Z,101789.03
2023-04-02T18:02:31.294Z,101800.44
2023-04-02T18:05:03.393Z,101795.00
2023-04-02T18:07:35.743Z,101805.25
2023-04-02T18:10:12.045Z,101806.31
2023-04-02T18:12:49.464Z,101810.97
2023-04-02T18:15:31.357Z,101819.13
2023-04-02T18:18:05.929Z,101822.72
2023-04-02T18:20:37.858Z,101826.06
2023-04-02T18:23:10.259Z,101824.84
2023-04-02T18:25:46.701Z,101835.59
2023-04-02T18:28:20.686Z,101829.06
2023-04-02T18:30:51.853Z,101837.47
2023-04-02T18:33:30.463Z,101836.28
2023-04-02T18:36:05.240Z,101837.16
2023-04-02T18:38:40.443Z,101844.38
2023-04-02T18:41:15.708Z,101843.75
2023-04-02T18:43:52.604Z,101845.25
2023-04-02T18:46:23.595Z,101849.09
2023-04-02T18:49:00.724Z,101850.28
2023-04-02T18:51:34.976Z,101855.09
2023-04-02T18:54:16.877Z,101863.41
2023-04-02T18:56:46.622Z,101867.19
2023-04-02T18:59:22.719Z,101870.63
2023-04-02T19:01:53.220Z,101869.84
2023-04-02T19:04:23.403Z,101872.34
2023-04-02T19:06:54.623Z,101874.81
2023-04-02T19:09:27.569Z,101878.16
2023-04-02T19:11:57.428Z,101871.50
2023-04-02T19:14:26.699Z,101879.56
2023-04-02T19:17:00.747Z,101881.03
2023-04-02T19:19:30.765Z,101885.88
2023-04-02T19:22:13.510Z,101893.59
2023-04-02T19:24:54.899Z,101897.19
2023-04-02T19:27:29.507Z,101895.88
2023-04-02T19:30:04.804Z,101904.78
2023-04-02T19:32:38.854Z,101899.13
2023-04-02T19:35:12.936Z,101904.16
2023-04-02T19:37:43.865Z,101903.75
2023-04-02T19:40:20.625Z,101906.88
2023-04-02T19:42:52.273Z,101906.44
2023-04-02T19:45:26.194Z,101916.34
2023-04-02T19:47:54.936Z,101915.91
2023-04-02T19:50:23.445Z,101921.56
2023-04-02T19:52:51.926Z,101917.38
2023-04-02T19:55:20.395Z,101928.22
2023-04-02T19:57:51.389Z,101923.69
2023-04-02T20:00:21.442Z,101934.97
2023-04-02T20:02:49.903Z,101929.97
2023-04-02T20:05:18.391Z,101935.38
2023-04-02T20:07:46.952Z,101935.81
2023-04-02T20:10:15.543Z,101933.09
2023-04-02T20:12:44.444Z,101938.69
2023-04-02T20:15:14.623Z,101946.16
2023-04-02T20:17:42.986Z,101946.56
2023-04-02T20:20:13.724Z,101946.19
2023-04-02T20:22:42.270Z,101949.09
2023-04-02T20:25:10.839Z,101949.34
2023-04-02T20:27:39.191Z,101959.09
2023-04-02T20:30:08.115Z,101956.84
2023-04-02T20:32:42.723Z,101959.94
2023-04-02T20:35:20.320Z,101957.47
2023-04-02T20:37:48.767Z,101959.50
2023-04-02T20:40:17.060Z,101964.91
2023-04-02T20:42:45.941Z,101966.16
2023-04-02T20:45:14.520Z,101969.91
2023-04-02T20:47:44.342Z,101972.78
2023-04-02T20:50:12.733Z,101978.78
2023-04-02T20:52:41.434Z,101980.66
2023-04-02T20:55:10.589Z,101989.78
2023-04-02T20:57:39.163Z,101992.22
2023-04-02T21:00:08.570Z,101989.69
2023-04-02T21:02:36.952Z,101988.47
2023-04-02T21:05:07.121Z,101993.03
2023-04-02T21:07:35.861Z,101994.72
2023-04-02T21:10:04.248Z,102004.94
2023-04-02T21:12:32.587Z,102000.19
2023-04-02T21:15:02.837Z,101996.84
2023-04-02T21:17:31.673Z,101995.22
2023-04-02T21:20:00.750Z,102002.69
2023-04-02T21:22:31.241Z,101998.97
2023-04-02T21:25:00.230Z,102002.09
2023-04-02T21:27:28.741Z,102003.72
2023-04-02T21:29:57.176Z,101999.78
2023-04-02T21:32:26.382Z,102006.41
2023-04-02T21:34:55.397Z,102008.72
2023-04-02T21:37:24.835Z,102017.22
2023-04-02T21:39:54.769Z,102013.28
2023-04-02T21:42:23.262Z,102012.66
2023-04-02T21:44:51.734Z,102018.91
2023-04-02T21:47:20.035Z,102028.88
2023-04-02T21:49:48.441Z,102019.28
2023-04-02T21:52:16.827Z,102017.00
2023-04-02T21:54:45.160Z,102027.81
2023-04-02T21:59:43.311Z,102019.94
2023-04-02T22:02:12.068Z,102018.91
2023-04-02T22:04:41.464Z,102027.59
2023-04-02T22:07:09.744Z,102018.47
2023-04-02T22:09:37.977Z,102031.72
2023-04-02T22:12:08.123Z,102024.88
2023-04-02T22:14:37.998Z,102035.84
2023-04-02T22:17:08.799Z,102035.59
2023-04-02T22:19:37.204Z,102036.59
2023-04-02T22:22:07.292Z,102038.25
2023-04-02T22:24:35.814Z,102041.16
2023-04-02T22:27:04.352Z,102048.44
2023-04-02T22:29:34.749Z,102053.78
2023-04-02T22:32:04.424Z,102050.22
2023-04-02T22:34:32.908Z,102052.06
2023-04-02T22:37:01.264Z,102055.66
2023-04-02T22:39:29.541Z,102052.09
2023-04-02T22:41:57.872Z,102057.28
2023-04-02T22:44:26.317Z,102061.81
2023-04-02T22:46:54.594Z,102065.53
2023-04-02T22:49:24.810Z,102063.63
2023-04-02T22:51:53.196Z,102067.31
2023-04-02T22:54:21.748Z,102073.38
2023-04-02T22:56:50.292Z,102065.53
2023-04-02T22:59:18.625Z,102066.13
2023-04-02T23:01:47.134Z,102072.69
2023-04-02T23:04:15.493Z,102077.06
2023-04-02T23:06:45.172Z,102066.44
2023-04-02T23:09:13.506Z,102078.22
2023-04-02T23:11:41.850Z,102085.91
2023-04-02T23:14:10.419Z,102084.25
2023-04-02T23:16:38.710Z,102086.31
2023-04-02T23:19:06.986Z,102084.41
2023-04-02T23:21:35.397Z,102079.19
2023-04-02T23:24:05.099Z,102090.75
2023-04-02T23:26:33.690Z,102086.78
2023-04-02T23:29:02.365Z,102089.63
2023-04-02T23:31:31.368Z,102094.25
2023-04-02T23:33:59.666Z,102094.63
2023-04-02T23:36:29.079Z,102098.84
2023-04-02T23:39:01.086Z,102094.59
2023-04-02T23:41:31.650Z,102099.66
2023-04-02T23:44:00.570Z,102093.25
2023-04-02T23:46:28.979Z,102097.66
2023-04-02T23:48:57.799Z,102092.28
2023-04-02T23:51:26.628Z,102098.09
2023-04-02T23:53:56.464Z,102103.72
2023-04-02T23:56:25.859Z,102104.38
2023-04-02T23:58:55.747Z,102105.59
